Time;durP1;ratioP1;P1;durP2;ratioP2;P2;SDS_P1;SDS_P2;PMS_P1;PMS_P2;Temp;Humidity;BMP_temperature;BMP_pressure;BME280_temperature;BME280_humidity;BME280_pressure;Samples;Min_cycle;Max_cycle;Signal;HPM_P1;HPM_P2
2021/05/29 00:02:16;;;;;;;1.73;0.80;;;;;;;1.24;73.25;100473.09;3618239;39;20448;-64
2021/05/29 00:04:43;;;;;;;4.28;1.15;;;;;;;1.19;72.96;100467.22;3618261;39;20059;-64
2021/05/29 00:07:12;;;;;;;5.22;1.17;;;;;;;1.12;74.08;100473.44;3608988;39;20039;-64
2021/05/29 00:09:39;;;;;;;3.08;0.70;;;;;;;1.18;72.65;100469.84;3618112;39;20047;-62
2021/05/29 00:12:10;;;;;;;2.58;0.95;;;;;;;1.10;75.15;100466.66;3618299;39;20059;-65
2021/05/29 00:14:39;;;;;;;2.88;1.02;;;;;;;1.07;73.83;100470.16;3618394;39;20062;-65
2021/05/29 00:17:08;;;;;;;2.47;1.02;;;;;;;1.09;74.76;100470.09;3618487;39;20051;-62
2021/05/29 00:19:36;;;;;;;3.08;0.88;;;;;;;1.08;74.21;100468.44;3618439;39;20058;-62
2021/05/29 00:22:03;;;;;;;1.42;0.70;;;;;;;1.01;74.34;100472.94;3618296;39;20073;-63
2021/05/29 00:24:30;;;;;;;1.60;1.00;;;;;;;1.00;75.55;100476.41;3626990;39;20123;-63
2021/05/29 00:26:59;;;;;;;2.92;0.90;;;;;;;0.99;75.67;100475.53;3627478;39;20416;-64
2021/05/29 00:29:26;;;;;;;2.67;1.00;;;;;;;0.98;74.70;100468.69;3627455;39;20050;-63
2021/05/29 00:31:54;;;;;;;2.22;1.00;;;;;;;0.98;75.32;100471.25;3626569;39;20055;-64
2021/05/29 00:34:22;;;;;;;9.93;1.25;;;;;;;0.96;75.08;100479.94;3618089;39;20066;-63
2021/05/29 00:36:49;;;;;;;4.30;1.17;;;;;;;0.95;76.44;100473.94;3618154;39;20061;-63
2021/05/29 00:39:16;;;;;;;2.38;0.90;;;;;;;0.95;76.31;100467.94;3620866;39;20128;-63
2021/05/29 00:41:44;;;;;;;1.20;0.70;;;;;;;0.91;77.45;100471.50;3609009;39;20699;-64
2021/05/29 00:44:14;;;;;;;2.78;1.20;;;;;;;0.91;78.36;100469.78;3618528;39;20039;-62
2021/05/29 00:46:41;;;;;;;1.48;0.70;;;;;;;0.92;77.65;100473.19;3618045;39;20119;-61
2021/05/29 00:49:08;;;;;;;3.15;1.23;;;;;;;0.95;75.64;100466.22;3618280;39;20050;-61
2021/05/29 00:51:37;;;;;;;6.32;1.20;;;;;;;0.95;78.56;100473.94;3617798;39;20058;-61
2021/05/29 00:54:06;;;;;;;1.83;0.90;;;;;;;0.92;79.27;100463.72;3618279;39;20465;-62
2021/05/29 00:56:33;;;;;;;2.28;0.70;;;;;;;1.01;77.25;100466.03;3617842;39;20449;-64
2021/05/29 00:59:02;;;;;;;2.75;1.30;;;;;;;1.06;76.27;100473.63;3617680;39;20155;-63
2021/05/29 01:01:29;;;;;;;4.15;0.73;;;;;;;1.11;76.32;100465.78;3617837;39;20065;-62
2021/05/29 01:03:58;;;;;;;2.38;1.05;;;;;;;1.15;78.56;100469.94;3617894;39;20063;-62
2021/05/29 01:06:26;;;;;;;1.73;0.88;;;;;;;1.20;78.32;100468.06;3618184;39;20054;-61
2021/05/29 01:08:53;;;;;;;2.75;1.10;;;;;;;1.24;77.20;100474.81;3620209;39;20058;-63
2021/05/29 01:11:20;;;;;;;4.05;1.20;;;;;;;1.25;78.60;100479.09;3617667;39;20058;-64
2021/05/29 01:13:48;;;;;;;3.58;0.93;;;;;;;1.27;78.56;100469.56;3626830;39;20167;-62
2021/05/29 01:16:41;;;;;;;2.40;1.00;;;;;;;1.33;78.10;100466.81;3665338;22;20091;-62
2021/05/29 01:19:04;;;;;;;4.45;1.13;;;;;;;1.36;76.73;100474.44;3585763;40;20044;-61
2021/05/29 01:21:32;;;;;;;2.58;1.05;;;;;;;1.42;77.17;100478.56;3586576;40;20048;-57
2021/05/29 01:23:59;;;;;;;1.42;0.90;;;;;;;1.46;78.07;100473.25;3586956;40;20040;-60
2021/05/29 01:26:26;;;;;;;3.13;0.70;;;;;;;1.51;78.96;100473.13;3586973;40;20053;-59
2021/05/29 01:28:55;;;;;;;2.97;0.70;;;;;;;1.50;78.02;100477.44;3568799;40;20041;-61
2021/05/29 01:31:31;;;;;;;1.42;0.95;;;;;;;1.59;75.25;100475.47;3586781;40;20123;-59
2021/05/29 01:34:00;;;;;;;2.53;0.93;;;;;;;1.62;75.79;100472.81;3586834;40;20122;-59
2021/05/29 01:36:28;;;;;;;2.30;0.95;;;;;;;1.68;77.02;100475.19;3577435;40;20063;-60
2021/05/29 01:38:56;;;;;;;3.72;0.90;;;;;;;1.69;75.20;100479.44;3587227;40;20081;-59
2021/05/29 01:41:24;;;;;;;3.38;1.08;;;;;;;1.73;74.51;100481.03;3585802;40;20052;-59
2021/05/29 01:43:52;;;;;;;2.80;0.90;;;;;;;1.77;74.93;100475.72;3586749;40;20044;-58
2021/05/29 01:46:21;;;;;;;2.45;1.10;;;;;;;1.80;75.77;100482.50;3586513;40;20049;-59
2021/05/29 01:48:50;;;;;;;5.88;1.35;;;;;;;1.80;73.76;100485.09;3586910;40;20244;-58
2021/05/29 01:51:23;;;;;;;1.60;0.88;;;;;;;1.86;74.52;100487.50;3577322;40;20056;-61
2021/05/29 01:53:53;;;;;;;3.33;0.85;;;;;;;1.95;73.32;100486.34;3586714;40;20060;-57
2021/05/29 01:56:21;;;;;;;4.38;1.08;;;;;;;1.98;73.42;100476.75;3586595;40;20060;-59
2021/05/29 01:58:48;;;;;;;3.20;0.80;;;;;;;2.02;72.79;100478.34;3586831;40;20098;-61
2021/05/29 02:01:16;;;;;;;2.05;0.70;;;;;;;2.08;72.55;100490.19;3586063;40;20051;-61
2021/05/29 02:03:45;;;;;;;2.80;0.90;;;;;;;2.14;72.24;100487.44;3586851;40;20049;-59
2021/05/29 02:06:16;;;;;;;1.73;1.00;;;;;;;2.18;73.28;100486.41;3586597;40;20052;-59
2021/05/29 02:08:43;;;;;;;2.58;0.98;;;;;;;2.20;72.68;100491.53;3586523;40;20081;-58
2021/05/29 02:11:11;;;;;;;3.17;1.00;;;;;;;2.19;72.74;100498.44;3584683;40;20052;-58
2021/05/29 02:13:40;;;;;;;2.53;0.95;;;;;;;2.19;71.32;100490.69;3586666;40;20871;-60
2021/05/29 02:16:09;;;;;;;1.95;0.82;;;;;;;2.21;71.25;100490.63;3586524;40;20056;-62
2021/05/29 02:18:38;;;;;;;3.28;0.95;;;;;;;2.32;70.47;100498.84;3586171;40;20121;-58
2021/05/29 02:21:11;;;;;;;1.63;0.88;;;;;;;2.40;70.23;100502.00;3586566;40;20145;-61
2021/05/29 02:23:41;;;;;;;1.05;0.80;;;;;;;2.44;71.12;100498.44;3586345;40;20052;-63
2021/05/29 02:26:18;;;;;;;1.83;0.70;;;;;;;2.55;70.99;100496.31;3584530;40;20057;-62
2021/05/29 02:28:50;;;;;;;2.45;0.98;;;;;;;2.55;72.89;100506.63;3586529;40;20053;-57
2021/05/29 02:31:19;;;;;;;1.25;0.80;;;;;;;2.61;70.83;100507.31;3586238;40;20130;-59
2021/05/29 02:33:47;;;;;;;11.18;4.80;;;;;;;2.72;71.57;100498.31;3586307;40;20304;-60
2021/05/29 02:36:14;;;;;;;29.77;12.60;;;;;;;2.81;69.24;100513.47;3586463;40;20415;-55
2021/05/29 02:38:42;;;;;;;9.48;3.05;;;;;;;2.88;69.80;100505.50;3585913;40;20060;-59
2021/05/29 02:41:12;;;;;;;1.85;1.10;;;;;;;2.91;69.82;100506.25;3586178;40;20065;-53
2021/05/29 02:43:41;;;;;;;2.25;0.70;;;;;;;3.05;68.98;100508.31;3586108;40;20061;-55
2021/05/29 02:46:09;;;;;;;2.50;0.68;;;;;;;3.10;69.26;100506.41;3584894;40;20077;-46
2021/05/29 02:48:37;;;;;;;2.88;0.70;;;;;;;3.20;68.74;100512.91;3584089;40;20049;-54
2021/05/29 02:51:05;;;;;;;3.95;1.15;;;;;;;3.30;68.60;100514.25;3586338;40;20084;-59
2021/05/29 02:53:32;;;;;;;3.75;0.90;;;;;;;3.33;66.94;100511.56;3586543;40;20407;-52
2021/05/29 02:56:00;;;;;;;2.55;0.95;;;;;;;3.33;66.52;100508.97;3587679;40;20055;-52
2021/05/29 02:58:27;;;;;;;37.28;15.73;;;;;;;3.42;67.48;100512.97;3587878;40;20064;-57
2021/05/29 03:00:55;;;;;;;6.55;2.05;;;;;;;3.43;67.34;100518.97;3587262;40;20060;-61
2021/05/29 03:03:22;;;;;;;3.67;1.13;;;;;;;3.49;67.59;100514.41;3587526;40;20450;-56
2021/05/29 03:05:50;;;;;;;2.97;0.75;;;;;;;3.54;67.37;100528.00;3587678;40;20048;-57
2021/05/29 03:08:19;;;;;;;2.45;0.82;;;;;;;3.68;68.07;100522.28;3587790;40;20137;-60
2021/05/29 03:10:47;;;;;;;2.42;1.02;;;;;;;3.81;67.56;100533.00;3587741;40;20076;-56
2021/05/29 03:13:14;;;;;;;3.08;0.90;;;;;;;3.94;66.05;100526.44;3587672;40;20088;-57
2021/05/29 03:15:42;;;;;;;3.80;0.73;;;;;;;4.12;66.05;100514.47;3585839;40;20360;-60
2021/05/29 03:18:09;;;;;;;4.63;1.00;;;;;;;4.33;65.58;100523.13;3587311;40;20052;-58
2021/05/29 03:20:37;;;;;;;3.40;0.95;;;;;;;4.54;64.95;100514.44;3587376;40;20076;-62
2021/05/29 03:23:06;;;;;;;144.93;60.47;;;;;;;4.74;65.20;100518.75;3587496;40;20037;-58
2021/05/29 03:25:35;;;;;;;11.30;5.60;;;;;;;4.95;63.25;100516.16;3586945;40;20072;-59
2021/05/29 03:28:03;;;;;;;3.17;0.80;;;;;;;5.11;62.43;100528.34;3587615;40;20053;-53
2021/05/29 03:30:31;;;;;;;1.90;0.60;;;;;;;5.24;63.06;100527.78;3587211;40;20142;-54
2021/05/29 03:32:58;;;;;;;1.20;0.55;;;;;;;5.43;62.28;100520.84;3585745;40;20052;-58
2021/05/29 03:35:26;;;;;;;3.05;0.63;;;;;;;5.58;62.38;100524.47;3587758;40;20084;-59
2021/05/29 03:37:54;;;;;;;1.40;0.50;;;;;;;5.68;62.36;100525.72;3587528;40;20130;-55
2021/05/29 03:40:22;;;;;;;3.15;0.80;;;;;;;5.73;63.73;100526.34;3587452;40;20053;-57
2021/05/29 03:42:50;;;;;;;1.73;0.43;;;;;;;5.85;63.00;100537.91;3587852;40;20132;-60
2021/05/29 03:45:19;;;;;;;7.00;2.83;;;;;;;5.76;61.86;100538.34;3587603;40;20089;-64
2021/05/29 03:47:47;;;;;;;8.30;3.83;;;;;;;5.86;62.05;100542.19;3587421;40;20055;-57
2021/05/29 03:50:23;;;;;;;0.85;0.50;;;;;;;5.94;61.66;100542.69;3587664;40;20052;-59
2021/05/29 03:52:51;;;;;;;1.98;0.65;;;;;;;6.00;62.06;100539.81;3587635;40;20041;-56
2021/05/29 03:55:21;;;;;;;1.13;0.52;;;;;;;6.00;63.87;100544.16;3587070;40;20040;-57
2021/05/29 03:57:50;;;;;;;1.23;0.50;;;;;;;6.04;64.43;100546.53;3585636;40;20088;-54
2021/05/29 04:00:20;;;;;;;1.50;0.50;;;;;;;6.07;63.45;100554.16;3587468;40;20040;-56
2021/05/29 04:02:48;;;;;;;1.63;0.65;;;;;;;6.15;61.51;100553.78;3587212;40;20052;-59
2021/05/29 04:05:15;;;;;;;1.60;0.40;;;;;;;6.17;63.10;100554.53;3587458;40;20057;-60
2021/05/29 04:07:43;;;;;;;2.65;0.70;;;;;;;6.04;63.22;100561.25;3587470;40;20048;-55
2021/05/29 04:10:15;;;;;;;0.63;0.50;;;;;;;6.15;62.15;100565.00;3587272;40;20049;-54
2021/05/29 04:12:43;;;;;;;1.55;0.68;;;;;;;6.01;63.55;100558.81;3587294;40;20485;-55
2021/05/29 04:15:12;;;;;;;3.17;0.70;;;;;;;6.07;61.93;100566.28;3587236;40;20065;-55
2021/05/29 04:17:41;;;;;;;2.00;0.43;;;;;;;6.10;61.81;100563.56;3587102;40;20141;-60
2021/05/29 04:20:09;;;;;;;3.33;0.70;;;;;;;6.19;62.69;100572.66;3586855;40;20044;-57
2021/05/29 04:22:37;;;;;;;22.35;11.05;;;;;;;6.09;60.27;100573.09;3587107;40;20049;-54
2021/05/29 04:25:11;;;;;;;20.88;12.23;;;;;;;6.16;61.82;100569.28;3587595;40;20153;-57
2021/05/29 04:27:38;;;;;;;2.63;1.10;;;;;;;6.04;61.03;100571.66;3586824;40;20092;-58
2021/05/29 04:30:09;;;;;;;1.67;0.52;;;;;;;6.19;61.98;100568.31;3586994;40;20335;-57
2021/05/29 04:32:36;;;;;;;3.03;0.55;;;;;;;6.11;61.65;100580.81;3587269;40;20055;-58
2021/05/29 04:35:06;;;;;;;0.60;0.50;;;;;;;6.16;61.70;100584.88;3586070;40;20134;-61
2021/05/29 04:37:33;;;;;;;2.88;0.55;;;;;;;5.98;60.67;100577.97;3584926;40;20324;-56
2021/05/29 04:40:02;;;;;;;1.00;0.40;;;;;;;6.00;62.63;100581.34;3587209;40;20153;-57
2021/05/29 04:42:30;;;;;;;3.08;0.40;;;;;;;6.15;62.92;100575.41;3587289;40;20040;-56
2021/05/29 04:44:57;;;;;;;1.15;0.50;;;;;;;6.19;61.87;100583.06;3587048;40;20058;-56
2021/05/29 04:47:26;;;;;;;1.20;0.50;;;;;;;6.15;63.51;100580.59;3587221;40;20318;-57
2021/05/29 04:49:54;;;;;;;1.92;0.43;;;;;;;6.11;61.42;100579.06;3587260;40;20053;-57
2021/05/29 04:52:21;;;;;;;1.20;0.60;;;;;;;6.01;62.56;100583.00;3586840;40;20045;-59
2021/05/29 04:54:48;;;;;;;13.88;5.75;;;;;;;5.99;64.49;100581.41;3584962;40;20051;-52
2021/05/29 04:57:16;;;;;;;6.93;2.60;;;;;;;6.14;63.65;100591.06;3587036;40;20052;-60
2021/05/29 04:59:44;;;;;;;1.55;0.60;;;;;;;6.13;62.65;100587.63;3587478;40;20081;-57
2021/05/29 05:02:11;;;;;;;0.50;0.50;;;;;;;6.25;62.42;100587.94;3586679;40;20045;-60
2021/05/29 05:04:38;;;;;;;0.75;0.50;;;;;;;6.32;62.22;100589.34;3586915;40;20041;-60
2021/05/29 05:07:05;;;;;;;1.50;0.40;;;;;;;6.45;62.70;100594.75;3586983;40;20064;-56
2021/05/29 05:09:32;;;;;;;0.88;0.50;;;;;;;6.55;61.06;100594.25;3587164;40;20343;-55
2021/05/29 05:12:00;;;;;;;1.25;0.60;;;;;;;6.65;60.38;100598.06;3586458;40;20512;-50
2021/05/29 05:14:27;;;;;;;17.08;6.10;;;;;;;6.75;60.68;100593.25;3587121;40;20062;-58
2021/05/29 05:16:55;;;;;;;4.32;2.58;;;;;;;6.78;59.24;100594.81;3587036;40;20033;-53
2021/05/29 05:19:22;;;;;;;1.77;0.80;;;;;;;6.80;59.42;100601.66;3586884;40;20093;-58
2021/05/29 05:21:50;;;;;;;2.40;0.50;;;;;;;6.82;59.04;100598.94;3586521;40;20064;-59
2021/05/29 05:24:17;;;;;;;1.00;0.50;;;;;;;6.88;59.56;100596.03;3586846;40;20048;-57
2021/05/29 05:26:45;;;;;;;2.17;0.45;;;;;;;6.79;59.46;100601.69;3586895;40;20131;-58
2021/05/29 05:29:12;;;;;;;3.67;0.60;;;;;;;6.97;59.68;100600.75;3586846;40;20051;-56
2021/05/29 05:31:42;;;;;;;1.10;0.40;;;;;;;6.88;58.55;100602.09;3586749;40;20044;-61
2021/05/29 05:34:10;;;;;;;1.90;0.40;;;;;;;7.10;57.39;100608.78;3586948;40;20087;-61
2021/05/29 05:36:39;;;;;;;0.57;0.40;;;;;;;7.31;58.13;100593.81;3577467;40;20330;-57
2021/05/29 05:39:08;;;;;;;0.65;0.30;;;;;;;7.44;56.44;100598.28;3586509;40;20300;-60
2021/05/29 05:41:37;;;;;;;3.17;0.50;;;;;;;7.44;58.09;100598.28;3586446;40;20049;-57
2021/05/29 05:44:05;;;;;;;2.05;0.52;;;;;;;7.18;55.94;100609.25;3586730;40;20079;-59
2021/05/29 05:46:34;;;;;;;0.85;0.50;;;;;;;7.01;56.78;100606.66;3586433;40;20059;-54
2021/05/29 05:49:02;;;;;;;0.80;0.40;;;;;;;7.10;54.88;100606.19;3585241;40;20299;-62
2021/05/29 05:51:31;;;;;;;0.50;0.40;;;;;;;7.09;55.06;100599.31;3586790;40;20052;-58
2021/05/29 05:53:59;;;;;;;1.08;0.40;;;;;;;7.17;56.61;100603.19;3586737;40;20048;-61
2021/05/29 05:56:26;;;;;;;1.10;0.60;;;;;;;7.34;56.35;100597.09;3584393;40;20048;-54
2021/05/29 05:58:56;;;;;;;2.50;0.70;;;;;;;7.52;54.81;100604.84;3586347;40;20048;-60
2021/05/29 06:01:25;;;;;;;1.65;0.43;;;;;;;7.65;53.96;100611.09;3586759;40;20418;-60
2021/05/29 06:03:52;;;;;;;1.38;0.40;;;;;;;7.77;55.64;100615.59;3586504;40;20044;-65
2021/05/29 06:06:20;;;;;;;1.42;0.43;;;;;;;7.94;52.27;100614.69;3585557;40;20689;-63
2021/05/29 06:08:48;;;;;;;0.85;0.50;;;;;;;8.01;52.02;100615.19;3586520;40;20442;-62
2021/05/29 06:11:15;;;;;;;0.80;0.40;;;;;;;8.06;52.22;100616.59;3586234;40;20044;-59
2021/05/29 06:21:34;;;;;;;2.45;0.65;;;;;;;8.07;52.40;100622.66;3586501;40;20137;-60
2021/05/29 06:24:01;;;;;;;1.15;0.50;;;;;;;7.99;53.78;100614.44;3585976;40;20044;-64
2021/05/29 06:26:29;;;;;;;1.52;0.50;;;;;;;7.98;52.48;100617.97;3587013;40;20049;-63
2021/05/29 06:28:56;;;;;;;1.15;0.50;;;;;;;8.10;54.77;100619.88;3586042;40;20741;-65
2021/05/29 06:31:24;;;;;;;4.22;0.50;;;;;;;8.25;52.56;100620.78;3586580;40;20048;-64
2021/05/29 06:33:51;;;;;;;1.70;0.47;;;;;;;8.54;54.15;100632.19;3585971;40;20053;-60
2021/05/29 06:36:18;;;;;;;1.60;0.63;;;;;;;8.84;54.60;100625.22;3586516;40;20064;-59
2021/05/29 06:38:46;;;;;;;1.38;0.65;;;;;;;8.87;54.04;100629.41;3586319;40;20071;-59
2021/05/29 06:41:13;;;;;;;0.82;0.50;;;;;;;8.95;52.97;100619.38;3586397;40;20049;-61
2021/05/29 06:43:40;;;;;;;1.08;0.50;;;;;;;9.24;52.67;100618.44;3586313;40;20429;-58
2021/05/29 06:46:08;;;;;;;1.88;0.55;;;;;;;9.23;50.97;100622.00;3586625;40;20056;-64
2021/05/29 06:48:35;;;;;;;0.80;0.45;;;;;;;9.31;50.22;100628.53;3586572;40;20421;-62
2021/05/29 06:51:03;;;;;;;0.60;0.30;;;;;;;9.09;50.18;100629.81;3585993;40;20051;-62
2021/05/29 06:53:42;;;;;;;0.20;0.20;;;;;;;8.76;49.42;100635.25;3584068;40;20048;-60
2021/05/29 06:58:56;;;;;;;1.00;0.40;;;;;;;8.84;50.96;100634.81;3586762;40;20063;-59
2021/05/29 07:01:28;;;;;;;2.13;0.50;;;;;;;8.58;47.87;100634.53;3586208;40;20317;-64
2021/05/29 07:03:57;;;;;;;1.50;0.70;;;;;;;8.45;50.13;100639.63;3584374;40;20049;-62
2021/05/29 07:06:24;;;;;;;9.43;2.72;;;;;;;8.48;50.86;100641.22;3586459;40;20315;-63
2021/05/29 07:08:55;;;;;;;1.23;0.52;;;;;;;8.77;53.26;100643.91;3586273;40;20059;-61
2021/05/29 07:11:23;;;;;;;1.35;0.50;;;;;;;9.27;51.46;100650.53;3584076;40;20064;-64
2021/05/29 07:13:50;;;;;;;0.65;0.40;;;;;;;9.63;49.55;100647.44;3586104;40;20048;-64
2021/05/29 07:16:19;;;;;;;1.15;0.40;;;;;;;9.96;50.37;100639.28;3585970;40;20443;-60
2021/05/29 07:18:48;;;;;;;1.13;0.52;;;;;;;10.12;47.26;100639.16;3585679;40;20045;-59
2021/05/29 07:21:17;;;;;;;1.02;0.63;;;;;;;10.15;47.62;100641.56;3576513;40;20443;-64
2021/05/29 07:23:45;;;;;;;1.13;0.70;;;;;;;9.99;46.55;100647.75;3586198;40;20045;-59
2021/05/29 07:26:13;;;;;;;1.05;0.35;;;;;;;10.52;48.88;100651.34;3585785;40;20216;-62
2021/05/29 07:28:40;;;;;;;0.47;0.40;;;;;;;10.44;45.36;100648.41;3583845;40;20311;-65
2021/05/29 07:31:08;;;;;;;1.83;0.60;;;;;;;10.41;49.11;100650.38;3585859;40;20064;-65
2021/05/29 07:33:36;;;;;;;1.98;0.50;;;;;;;10.52;46.41;100653.97;3586296;40;20067;-60
2021/05/29 07:36:04;;;;;;;1.65;0.40;;;;;;;10.35;44.77;100654.25;3585655;40;20416;-64
2021/05/29 07:38:33;;;;;;;0.93;0.32;;;;;;;10.27;44.40;100668.72;3586000;40;20045;-59
2021/05/29 07:41:02;;;;;;;1.17;0.40;;;;;;;10.38;46.76;100664.47;3587060;40;20052;-61
2021/05/29 07:43:32;;;;;;;1.08;0.55;;;;;;;10.24;41.30;100665.38;3587459;40;20053;-60
2021/05/29 07:45:59;;;;;;;2.80;0.55;;;;;;;10.44;45.30;100660.63;3587693;40;20044;-62
2021/05/29 07:48:27;;;;;;;1.00;0.70;;;;;;;10.45;45.00;100663.16;3587457;40;20068;-65
2021/05/29 07:50:58;;;;;;;2.53;0.50;;;;;;;10.17;44.11;100678.91;3587666;40;20389;-59
2021/05/29 07:53:39;;;;;;;1.45;0.32;;;;;;;10.20;42.93;100682.13;3576057;40;20052;-60
2021/05/29 07:56:12;;;;;;;1.83;0.50;;;;;;;10.59;44.95;100671.91;3587294;40;20403;-60
2021/05/29 07:58:41;;;;;;;1.50;0.50;;;;;;;10.74;46.14;100681.34;3585548;40;20048;-63
2021/05/29 08:01:10;;;;;;;1.58;0.40;;;;;;;10.10;45.60;100698.50;3587024;40;20068;-61
2021/05/29 08:03:38;;;;;;;1.08;0.68;;;;;;;9.80;45.29;100696.03;3587070;40;20041;-61
2021/05/29 08:06:13;;;;;;;1.00;0.43;;;;;;;10.31;46.54;100706.81;3587194;40;20048;-61
2021/05/29 08:08:41;;;;;;;2.85;0.65;;;;;;;9.91;43.64;100699.66;3587704;40;20057;-61
2021/05/29 08:11:16;;;;;;;1.58;0.57;;;;;;;9.71;43.63;100713.94;3587258;40;20292;-64
2021/05/29 08:13:44;;;;;;;2.60;0.55;;;;;;;9.54;46.88;100708.88;3585940;40;20112;-62
2021/05/29 08:16:13;;;;;;;1.00;0.40;;;;;;;9.80;44.74;100698.66;3587445;40;20332;-61
2021/05/29 08:18:40;;;;;;;2.58;0.90;;;;;;;10.11;45.48;100705.41;3587001;40;20052;-61
2021/05/29 08:21:08;;;;;;;1.27;0.45;;;;;;;10.31;46.26;100706.81;3587579;40;20040;-60
2021/05/29 08:23:35;;;;;;;1.48;0.50;;;;;;;10.60;47.81;100715.41;3587623;40;20070;-63
2021/05/29 08:26:03;;;;;;;1.02;0.55;;;;;;;10.67;44.48;100711.44;3587485;40;20056;-64
2021/05/29 08:28:30;;;;;;;1.98;0.50;;;;;;;10.75;45.08;100712.63;3586926;40;20096;-63
2021/05/29 08:30:57;;;;;;;1.88;0.80;;;;;;;10.45;42.83;100723.31;3587341;40;20397;-65
2021/05/29 08:33:25;;;;;;;1.95;0.55;;;;;;;10.00;41.78;100714.75;3587223;40;20059;-60
2021/05/29 08:35:52;;;;;;;0.93;0.43;;;;;;;10.24;44.96;100724.66;3587277;40;20097;-63
2021/05/29 08:38:20;;;;;;;1.17;0.50;;;;;;;10.56;44.29;100734.84;3586801;40;20057;-62
2021/05/29 08:40:47;;;;;;;0.98;0.55;;;;;;;10.63;44.44;100730.88;3587236;40;20052;-61
2021/05/29 08:43:15;;;;;;;1.70;0.60;;;;;;;10.33;43.90;100723.25;3587281;40;20055;-63
2021/05/29 08:45:44;;;;;;;0.75;0.32;;;;;;;10.33;47.02;100729.31;3586946;40;20072;-65
2021/05/29 08:48:12;;;;;;;1.10;0.43;;;;;;;10.34;47.50;100740.59;3587151;40;20051;-62
2021/05/29 08:51:12;;;;;;;1.67;0.50;;;;;;;10.12;47.31;100738.47;3586936;40;20079;-60
2021/05/29 08:53:28;;;;;;;2.35;0.70;;;;;;;10.27;45.02;100731.47;3587084;40;20126;-65
2021/05/29 08:55:57;;;;;;;0.90;0.47;;;;;;;9.77;43.29;100736.22;3587340;40;20044;-60
2021/05/29 08:58:26;;;;;;;1.67;0.45;;;;;;;10.32;47.38;100742.47;3586810;40;20056;-66
2021/05/29 09:00:54;;;;;;;3.88;0.70;;;;;;;10.81;47.03;100747.19;3585319;40;20121;-60
2021/05/29 09:03:21;;;;;;;1.73;0.50;;;;;;;10.87;45.65;100744.16;3586874;40;20060;-60
2021/05/29 09:05:52;;;;;;;4.45;0.70;;;;;;;10.99;45.53;100743.38;3587125;40;20078;-61
2021/05/29 09:08:24;;;;;;;0.88;0.40;;;;;;;10.61;45.02;100766.78;3587061;40;20384;-64
2021/05/29 09:10:54;;;;;;;1.58;0.60;;;;;;;10.57;44.46;100763.50;3587013;40;20626;-66
2021/05/29 09:13:27;;;;;;;0.73;0.40;;;;;;;9.92;45.59;100760.56;3587092;40;20255;-63
2021/05/29 09:16:00;;;;;;;2.38;0.50;;;;;;;10.51;44.05;100766.53;3586953;40;20051;-64
2021/05/29 09:18:41;;;;;;;1.60;0.50;;;;;;;10.69;44.27;100767.13;3587248;40;20048;-63
2021/05/29 09:21:23;;;;;;;0.82;0.45;;;;;;;10.72;41.95;100759.06;3586894;40;20040;-65
2021/05/29 09:24:13;;;;;;;1.75;0.65;;;;;;;10.72;44.58;100757.28;3587040;40;20044;-62
2021/05/29 09:26:43;;;;;;;1.55;0.40;;;;;;;11.42;45.21;100764.91;3586710;40;20415;-60
2021/05/29 09:29:13;;;;;;;1.60;0.50;;;;;;;10.95;45.21;100763.66;3586857;40;20044;-65
2021/05/29 09:31:55;;;;;;;2.55;1.17;;;;;;;11.16;42.67;100771.91;3586880;40;20438;-61
2021/05/29 09:34:42;;;;;;;2.60;1.10;;;;;;;11.24;44.80;100766.13;3586835;40;20047;-64
2021/05/29 09:37:28;;;;;;;1.33;0.65;;;;;;;10.91;43.35;100777.88;3586844;40;20071;-62
2021/05/29 09:40:02;;;;;;;1.55;0.52;;;;;;;10.87;44.05;100778.16;3586366;40;20064;-65
2021/05/29 09:42:37;;;;;;;1.13;0.40;;;;;;;11.23;46.40;100770.53;3586979;40;20687;-61
2021/05/29 09:45:28;;;;;;;2.38;0.52;;;;;;;11.76;45.29;100770.47;3586742;40;20068;-65
2021/05/29 09:48:20;;;;;;;2.42;0.88;;;;;;;12.30;46.60;100772.88;3586610;40;20084;-64
2021/05/29 09:51:08;;;;;;;2.47;0.85;;;;;;;12.67;41.46;100776.31;3586326;40;20072;-62
2021/05/29 09:53:47;;;;;;;0.82;0.35;;;;;;;11.77;41.45;100783.50;3586538;40;20091;-60
2021/05/29 09:56:31;;;;;;;1.75;0.60;;;;;;;11.21;41.89;100782.91;3586794;40;20045;-63
2021/05/29 09:59:02;;;;;;;2.05;0.60;;;;;;;10.71;41.53;100781.78;3586740;40;20071;-62
2021/05/29 10:01:41;;;;;;;1.70;0.43;;;;;;;10.93;43.77;100786.47;3586988;40;20048;-61
2021/05/29 10:04:13;;;;;;;2.63;0.80;;;;;;;11.58;45.28;100790.06;3586350;40;20044;-62
2021/05/29 10:06:52;;;;;;;0.75;0.50;;;;;;;11.23;43.08;100785.41;3586808;40;20060;-60
2021/05/29 10:09:20;;;;;;;1.75;0.57;;;;;;;11.56;46.53;100790.19;3586344;40;20142;-64
2021/05/29 10:11:48;;;;;;;1.40;0.57;;;;;;;11.37;42.46;100789.75;3586782;40;20076;-63
2021/05/29 10:14:15;;;;;;;1.05;0.55;;;;;;;11.23;43.07;100790.66;3586443;40;20056;-61
2021/05/29 10:16:44;;;;;;;2.50;0.47;;;;;;;11.32;44.39;100797.91;3586433;40;20122;-61
2021/05/29 10:19:12;;;;;;;1.15;0.52;;;;;;;11.68;44.86;100794.59;3584393;40;20060;-60
2021/05/29 10:21:39;;;;;;;1.00;0.50;;;;;;;12.19;48.47;100801.63;3586543;40;20448;-60
2021/05/29 10:24:08;;;;;;;0.88;0.30;;;;;;;12.59;43.33;100801.44;3586613;40;20059;-61
2021/05/29 10:26:36;;;;;;;1.30;0.80;;;;;;;12.75;43.62;100796.75;3586587;40;20331;-61
2021/05/29 10:29:05;;;;;;;2.83;0.70;;;;;;;12.71;44.30;100795.28;3586558;40;20067;-60
2021/05/29 10:31:37;;;;;;;0.75;0.45;;;;;;;12.82;40.21;100790.97;3586598;40;20055;-61
2021/05/29 10:34:06;;;;;;;1.85;0.90;;;;;;;12.57;40.26;100812.03;3586030;40;20056;-65
2021/05/29 10:36:54;;;;;;;3.10;0.70;;;;;;;12.14;40.60;100808.97;3586496;40;20056;-61
2021/05/29 10:39:22;;;;;;;3.53;0.85;;;;;;;12.13;42.11;100802.88;3586253;40;20067;-62
2021/05/29 10:41:56;;;;;;;0.77;0.40;;;;;;;12.81;42.81;100805.00;3586368;40;20056;-60
2021/05/29 10:44:42;;;;;;;1.77;0.80;;;;;;;12.50;43.33;100808.19;3586020;40;20049;-63
2021/05/29 10:47:16;;;;;;;1.58;0.50;;;;;;;12.40;41.19;100812.41;3586196;40;20045;-63
2021/05/29 10:49:50;;;;;;;3.88;0.70;;;;;;;12.25;41.43;100814.31;3586163;40;20137;-59
2021/05/29 10:52:30;;;;;;;2.13;0.65;;;;;;;12.10;39.75;100829.31;3586244;40;20055;-64
2021/05/29 10:55:19;;;;;;;1.63;0.60;;;;;;;12.35;41.07;100822.38;3586578;40;20051;-60
2021/05/29 10:58:06;;;;;;;0.98;0.43;;;;;;;12.40;38.89;100820.28;3586185;40;20318;-66
2021/05/29 11:00:40;;;;;;;1.15;0.60;;;;;;;12.71;42.63;100816.28;3586227;40;20052;-63
2021/05/29 11:03:16;;;;;;;3.10;0.43;;;;;;;12.71;39.26;100829.41;3584626;40;20040;-61
2021/05/29 11:06:01;;;;;;;3.63;0.60;;;;;;;13.13;40.27;100814.97;3586162;40;20308;-65
2021/05/29 11:08:47;;;;;;;1.10;0.60;;;;;;;12.90;39.26;100808.75;3585414;40;20053;-62
2021/05/29 11:14:31;;;;;;;7.28;0.70;;;;;;;12.24;39.74;100826.56;3581683;40;20322;-61
2021/05/29 11:16:58;;;;;;;2.03;0.50;;;;;;;12.09;42.35;100830.25;3587712;40;20074;-60
2021/05/29 11:19:37;;;;;;;0.90;0.50;;;;;;;11.93;42.26;100822.63;3587445;40;20048;-63
2021/05/29 11:22:14;;;;;;;1.90;0.50;;;;;;;12.12;42.05;100826.59;3587600;40;20411;-64
2021/05/29 11:24:48;;;;;;;1.90;0.40;;;;;;;12.20;42.60;100824.28;3587662;40;20049;-62
2021/05/29 11:27:22;;;;;;;;;;;;;;;12.14;39.10;100827.31;3588427;40;20092;-60
2021/05/29 11:29:55;;;;;;;2.22;0.50;;;;;;;11.84;39.20;100833.72;3587747;40;19936;-65
2021/05/29 11:35:48;;;;;;;1.15;0.60;;;;;;;12.72;39.77;100833.72;3587801;40;20044;-62
2021/05/29 11:38:23;;;;;;;1.60;0.60;;;;;;;12.91;40.45;100827.97;3587644;40;20040;-63
2021/05/29 11:41:03;;;;;;;2.17;0.50;;;;;;;13.06;40.37;100824.25;3587553;40;20111;-64
2021/05/29 11:43:40;;;;;;;1.55;0.50;;;;;;;13.02;37.90;100825.44;3586269;40;20060;-65
2021/05/29 11:46:13;;;;;;;2.03;0.60;;;;;;;13.04;37.40;100829.59;3587151;40;20044;-67
2021/05/29 11:48:42;;;;;;;1.15;0.70;;;;;;;12.68;37.97;100834.91;3587608;40;20056;-61
2021/05/29 11:51:14;;;;;;;2.22;0.50;;;;;;;12.05;40.82;100828.78;3587121;40;20044;-64
2021/05/29 11:53:46;;;;;;;2.75;0.60;;;;;;;12.80;41.62;100829.59;3585414;40;20423;-67
2021/05/29 11:56:16;;;;;;;2.15;0.60;;;;;;;13.19;40.17;100827.63;3587467;40;20528;-62
2021/05/29 11:59:12;;;;;;;1.88;0.47;;;;;;;13.70;36.68;100824.72;3587381;40;20044;-62
2021/05/29 12:01:48;;;;;;;3.35;0.50;;;;;;;13.54;38.45;100822.44;3587154;40;20067;-64